Due to severe server failure at the provider, not all demo sites are operational. Will take some days to rebuilt everything.

Demonstration site - Click on the  for more information

This is an optional block. Switch it on/off in your settings-file: $SITE['bannerTop'] = false; or $SITE['bannerBottom'] = false;

You can display ads, any other important text or photo’s using text / html or PHP code.

You can place one or more at the top and or bottom and it can all be different for content / size .



Visit our other weather sites:

Template documentation
and downloads

And another site



Nearby METAR Reports

   
EBAW - Antwerp
Updated: 20-06-2019 19:50
Clear  
Clear  
   Wind: NW 14.8 km/h
Wind: NW 14.8 km/h
Temperature: 18°C
Dew Point: 11°C
Humidity: 64%
Barometer: 1014 hPa
Visibility: More than 10 km
Cloud details: Clear ft
EBAW 201750Z 32008KT 290V360 CAVOK 18/11 Q1014 NOSIG
EBLG - Liège
Updated: 20-06-2019 19:50
Partly Cloudy  
Partly Cloudy  
   Wind: West 14.8 km/h
Wind: West 14.8 km/h
Temperature: 19°C
Dew Point: 12°C
Humidity: 64%
Barometer: 1015 hPa
Clouds: Partly Cloudy
Visibility: More than 10 km
Cloud details: Partly Cloudy 3200 ft
EBLG 201750Z 27008KT 9999 SCT032 19/12 Q1015 NOSIG
EBCV - Mons/Bergen
Updated: 20-06-2019 19:55
Clear  
Clear  
   Wind: West 16.7 km/h
Wind: West 16.7 km/h
Temperature: 18°C
Dew Point: 9°C
Humidity: 56%
Barometer: 1016 hPa
Clouds: Clear
Visibility: More than 10 km
Cloud details: Clear ft
EBCV 201755Z AUTO 27009KT 9999 NCD 18/09 Q1016 BLU
EHBK - Maastricht
Updated: 20-06-2019 19:55
Partly Cloudy  
Partly Cloudy  
   Wind: WNW 13 km/h
Wind: WNW 13 km/h
Temperature: 19°C
Dew Point: 13°C
Humidity: 68%
Barometer: 1014 hPa
Clouds: Partly Cloudy
Visibility: More than 10 km
Cloud details: Few Clouds 2800 ft,
Partly Cloudy 3100 ft
EHBK 201755Z AUTO 29007KT 240V350 9999 FEW028 SCT031 19/13 Q1014 NOSIG
ELLX - Luxemburg
Updated: 20-06-2019 19:50
Partly Cloudy  
Partly Cloudy  
   Wind: WNW 9.3 km/h
Wind: WNW 9.3 km/h
Temperature: 19°C
Dew Point: 13°C
Humidity: 68%
Barometer: 1015 hPa
Clouds: Partly Cloudy
Visibility: More than 10 km
Cloud details: Few Clouds 2700 ft,
Partly Cloudy 3600 ft
ELLX 201750Z 29005KT 230V330 9999 FEW027 SCT036 19/13 Q1015 NOSIG
EBOS - Oostende
Updated: 20-06-2019 19:50
Few Clouds  
Few Clouds  
   Wind: West 27.8 km/h
Wind: West 27.8 km/h
Temperature: 17°C
Dew Point: 9°C
Humidity: 59%
Barometer: 1015 hPa
Clouds: Few Clouds
Visibility: More than 10 km
Cloud details: Few Clouds 3000 ft
EBOS 201750Z 26015KT 9999 FEW030 17/09 Q1015 NOSIG

Script developed by  Saratoga-weather.org Adapted for the template by  Weerstation Leuven

This is an optional block. Switch it on/off in your settings-file: $SITE['bannerTop'] = false; or $SITE['bannerBottom'] = false;

You can display ads, any other important text or photo’s using text / html or PHP code.

You can place one or more at the top and or bottom and it can all be different for content / size .